Time;durP1;ratioP1;P1;durP2;ratioP2;P2;SDS_P1;SDS_P2;PMS_P1;PMS_P2;Temp;Humidity;BMP_temperature;BMP_pressure;BME280_temperature;BME280_humidity;BME280_pressure;Samples;Min_cycle;Max_cycle;Signal;HPM_P1;HPM_P2
2023/01/27 00:01:19;;;;;;;117.90;46.50;;;;;;;0.66;95.30;100621.27;106452;1276;24243;-59
2023/01/27 00:03:50;;;;;;;104.70;45.90;;;;;;;0.68;95.41;100617.64;106361;1274;22523;-60
2023/01/27 00:06:21;;;;;;;108.10;43.10;;;;;;;0.69;95.43;100618.41;106469;1270;23755;-58
2023/01/27 00:08:52;;;;;;;114.10;45.90;;;;;;;0.70;95.34;100618.41;106379;1270;22545;-59
2023/01/27 00:14:11;;;;;;;94.10;42.50;;;;;;;0.74;95.40;100617.21;106369;1271;22768;-58
2023/01/27 00:16:42;;;;;;;109.30;43.90;;;;;;;0.74;95.36;100614.47;106376;1276;24233;-59
2023/01/27 00:19:13;;;;;;;108.00;41.70;;;;;;;0.73;95.30;100615.09;106529;1262;24268;-60
2023/01/27 00:24:37;;;;;;;108.90;45.10;;;;;;;0.76;95.41;100611.94;106472;1269;22593;-58
2023/01/27 00:27:09;;;;;;;125.20;47.70;;;;;;;0.77;95.44;100612.00;106432;1270;22530;-59
2023/01/27 00:29:40;;;;;;;110.90;46.20;;;;;;;0.80;95.48;100613.23;106595;1276;24349;-59
2023/01/27 00:35:00;;;;;;;102.00;42.20;;;;;;;0.79;95.40;100611.44;106422;1262;22539;-59
2023/01/27 00:37:31;;;;;;;98.10;41.10;;;;;;;0.78;95.38;100613.25;106372;1271;22527;-57
2023/01/27 00:40:02;;;;;;;110.30;42.80;;;;;;;0.79;95.37;100621.58;106417;1255;22579;-59
2023/01/27 00:42:32;;;;;;;107.30;41.90;;;;;;;0.79;95.40;100622.73;106395;1276;25233;-59
2023/01/27 00:47:53;;;;;;;112.50;47.40;;;;;;;0.85;95.67;100630.95;106366;1276;23015;-57
2023/01/27 00:50:24;;;;;;;123.40;46.20;;;;;;;0.87;95.68;100633.61;106403;1274;24213;-59
2023/01/27 00:52:57;;;;;;;112.00;47.70;;;;;;;0.88;95.60;100634.06;106375;1273;22528;-59
2023/01/27 00:55:29;;;;;;;113.00;44.70;;;;;;;0.87;95.56;100631.80;106507;1269;24292;-60
2023/01/27 00:58:00;;;;;;;119.50;46.00;;;;;;;0.89;95.57;100633.44;106499;1261;22806;-58
2023/01/27 01:00:31;;;;;;;101.50;40.30;;;;;;;0.90;95.63;100637.34;106424;1261;22906;-59
2023/01/27 01:03:02;;;;;;;96.60;37.40;;;;;;;0.90;95.50;100638.14;106472;1276;24447;-58
2023/01/27 01:05:33;;;;;;;101.60;42.80;;;;;;;0.89;95.41;100640.96;106421;1276;25178;-58
2023/01/27 01:08:04;;;;;;;96.30;40.80;;;;;;;0.89;95.56;100640.73;106434;1276;25418;-59
2023/01/27 01:10:36;;;;;;;98.60;40.70;;;;;;;0.89;95.55;100640.73;106490;1274;25431;-59
2023/01/27 01:13:10;;;;;;;94.70;38.30;;;;;;;0.88;95.49;100639.56;106433;1270;23042;-59
2023/01/27 01:15:41;;;;;;;102.10;41.00;;;;;;;0.89;95.59;100641.45;106453;1273;22538;-60
2023/01/27 01:18:13;;;;;;;101.90;41.20;;;;;;;0.90;95.63;100637.35;106452;1273;22613;-58
2023/01/27 01:20:45;;;;;;;114.50;41.40;;;;;;;0.90;95.68;100630.90;106509;1276;22582;-58
2023/01/27 01:23:17;;;;;;;103.00;42.50;;;;;;;0.91;95.68;100632.47;106433;1271;22732;-59
2023/01/27 01:25:55;;;;;;;107.10;43.40;;;;;;;0.91;95.67;100626.83;106507;1276;25298;-59
2023/01/27 01:28:26;;;;;;;102.40;39.50;;;;;;;0.91;95.62;100627.60;106517;1276;25403;-57
2023/01/27 01:31:03;;;;;;;112.30;46.30;;;;;;;0.92;95.67;100627.74;106416;1273;24301;-61
2023/01/27 01:33:34;;;;;;;107.80;43.70;;;;;;;0.93;95.69;100623.50;106611;1276;24346;-59
2023/01/27 01:36:11;;;;;;;108.00;41.70;;;;;;;0.93;95.58;100622.27;106463;1276;22670;-58
2023/01/27 01:38:42;;;;;;;98.60;41.90;;;;;;;0.95;95.63;100624.05;106646;1276;22585;-58
2023/01/27 01:41:17;;;;;;;104.90;43.90;;;;;;;0.96;95.72;100624.19;106604;1276;24271;-59
2023/01/27 01:43:48;;;;;;;104.20;45.50;;;;;;;0.98;95.75;100624.41;106538;1276;22538;-56
2023/01/27 01:46:19;;;;;;;115.50;44.60;;;;;;;1.00;95.73;100621.88;106514;1271;25380;-58
2023/01/27 01:48:54;;;;;;;100.10;40.20;;;;;;;1.02;95.66;100621.63;106513;1262;22581;-59
2023/01/27 01:51:29;;;;;;;104.50;42.70;;;;;;;1.02;95.60;100625.31;106463;1269;25130;-59
2023/01/27 01:54:03;;;;;;;100.30;43.50;;;;;;;1.04;95.66;100623.18;106484;1276;25257;-60
2023/01/27 01:56:38;;;;;;;96.80;40.60;;;;;;;1.05;95.64;100622.63;106585;1276;24255;-59
2023/01/27 01:59:16;;;;;;;103.50;43.30;;;;;;;1.06;95.62;100622.92;106444;1276;24269;-59
2023/01/27 02:01:48;;;;;;;92.60;38.20;;;;;;;1.03;95.39;100623.44;106662;1272;22543;-58
2023/01/27 02:04:24;;;;;;;98.70;38.60;;;;;;;0.98;95.43;100625.66;106370;1276;22583;-59
2023/01/27 02:07:01;;;;;;;93.70;39.50;;;;;;;0.94;95.45;100629.08;106396;1269;25431;-57
2023/01/27 02:09:31;;;;;;;96.30;41.50;;;;;;;0.90;95.60;100631.06;106577;1276;22527;-59
2023/01/27 02:12:03;;;;;;;100.80;41.10;;;;;;;0.90;95.75;100632.00;106478;1276;25425;-58
2023/01/27 02:14:34;;;;;;;102.30;39.30;;;;;;;0.93;95.87;100633.10;106523;1276;25472;-58
2023/01/27 02:17:06;;;;;;;103.60;40.70;;;;;;;0.94;95.94;100633.79;106451;1270;24427;-59
2023/01/27 02:19:49;;;;;;;91.90;38.80;;;;;;;0.95;95.90;100632.68;106496;1257;22530;-58
2023/01/27 02:22:26;;;;;;;102.80;38.10;;;;;;;0.95;95.89;100631.58;106453;1260;24279;-60
2023/01/27 02:25:07;;;;;;;101.70;40.80;;;;;;;0.94;95.75;100627.51;106392;1256;24270;-56
2023/01/27 02:27:38;;;;;;;101.10;42.00;;;;;;;0.92;95.83;100633.24;106522;1269;22528;-59
2023/01/27 02:30:11;;;;;;;110.60;42.90;;;;;;;0.89;95.83;100634.37;106564;1269;22525;-59
2023/01/27 02:32:43;;;;;;;104.50;42.70;;;;;;;0.88;95.96;100636.58;106664;1276;22529;-59
2023/01/27 02:35:21;;;;;;;103.60;44.20;;;;;;;0.87;96.03;100639.89;106448;1274;22655;-56
2023/01/27 02:37:53;;;;;;;106.20;45.20;;;;;;;0.89;96.12;100639.41;106577;1276;25435;-59
2023/01/27 02:40:26;;;;;;;113.40;43.00;;;;;;;0.92;96.21;100638.84;106517;1272;23089;-58
2023/01/27 02:42:58;;;;;;;112.80;47.60;;;;;;;0.95;96.33;100636.14;106603;1274;23730;-60
2023/01/27 02:45:29;;;;;;;105.40;46.00;;;;;;;0.97;96.30;100634.01;106614;1276;22527;-59
2023/01/27 02:48:00;;;;;;;106.70;44.00;;;;;;;1.00;96.32;100633.27;106489;1276;22650;-56
2023/01/27 02:50:30;;;;;;;121.00;49.90;;;;;;;1.02;96.30;100630.11;106464;1273;22530;-59
2023/01/27 02:53:01;;;;;;;116.90;46.40;;;;;;;1.04;96.33;100633.78;106452;1276;22611;-59
2023/01/27 02:55:32;;;;;;;112.30;44.80;;;;;;;1.03;96.13;100629.08;106523;1271;22537;-59
2023/01/27 02:58:03;;;;;;;114.70;47.20;;;;;;;1.02;96.13;100631.13;106598;1275;22527;-61
2023/01/27 03:00:35;;;;;;;113.70;46.50;;;;;;;1.01;96.19;100632.40;106561;1269;23019;-58
2023/01/27 03:03:06;;;;;;;117.20;45.80;;;;;;;1.02;96.28;100635.61;106634;1271;22741;-59
2023/01/27 03:05:36;;;;;;;105.70;44.20;;;;;;;1.04;96.34;100633.47;106457;1276;24483;-59
2023/01/27 03:08:07;;;;;;;112.60;46.70;;;;;;;1.04;96.32;100633.78;106398;1276;22539;-61
2023/01/27 03:10:38;;;;;;;106.10;46.40;;;;;;;1.05;96.30;100638.80;106476;1276;25059;-59
2023/01/27 03:13:09;;;;;;;107.70;45.90;;;;;;;1.05;96.12;100634.63;106421;1262;24220;-59
2023/01/27 03:18:28;;;;;;;103.90;44.60;;;;;;;1.06;96.15;100640.20;106427;1262;22562;-59
2023/01/27 03:21:04;;;;;;;104.50;43.30;;;;;;;1.05;96.03;100637.23;106585;1270;25233;-58
2023/01/27 03:23:36;;;;;;;112.80;48.50;;;;;;;1.04;96.03;100632.45;106528;1276;24611;-57
2023/01/27 03:26:09;;;;;;;116.60;49.20;;;;;;;1.03;96.07;100634.52;106448;1258;24468;-59
2023/01/27 03:28:40;;;;;;;125.10;51.20;;;;;;;1.02;96.02;100637.49;106505;1265;22625;-60
2023/01/27 03:31:18;;;;;;;140.80;58.60;;;;;;;1.02;96.08;100635.21;106486;1276;22538;-56
2023/01/27 03:33:49;;;;;;;143.80;59.30;;;;;;;1.01;96.24;100632.40;106481;1256;22529;-59
2023/01/27 03:47:36;;;;;;;124.00;50.90;;;;;;;0.99;96.15;100629.83;106427;1262;22526;-57
2023/01/27 03:50:17;;;;;;;113.30;46.70;;;;;;;0.99;96.24;100627.09;106462;1276;23022;-61
2023/01/27 03:53:02;;;;;;;115.90;45.60;;;;;;;0.98;96.26;100630.07;106398;1275;24398;-62
2023/01/27 03:55:34;;;;;;;107.10;46.20;;;;;;;0.97;96.42;100630.87;106489;1276;22531;-60
2023/01/27 03:58:17;;;;;;;108.80;45.20;;;;;;;0.97;96.36;100629.68;106348;1270;200159;-60
2023/01/27 04:00:49;;;;;;;117.20;46.20;;;;;;;0.94;96.47;100632.38;106524;1274;22542;-59
2023/01/27 04:09:01;;;;;;;123.10;47.90;;;;;;;0.92;96.79;100625.71;106341;1276;22539;-57
2023/01/27 04:14:22;;;;;;;102.50;44.30;;;;;;;0.94;96.93;100623.82;106431;1271;22533;-59
2023/01/27 04:16:56;;;;;;;126.70;44.80;;;;;;;0.90;96.85;100622.41;106355;1272;25520;-59
2023/01/27 04:19:27;;;;;;;123.80;45.30;;;;;;;0.91;96.99;100627.54;106544;1264;22581;-59
2023/01/27 04:22:00;;;;;;;112.60;40.50;;;;;;;0.92;96.99;100628.54;106371;1276;24227;-59
2023/01/27 04:24:31;;;;;;;117.40;44.70;;;;;;;0.91;96.99;100629.81;106523;1276;22718;-59
2023/01/27 04:27:04;;;;;;;123.10;44.20;;;;;;;0.90;96.98;100630.98;106465;1276;24269;-59
2023/01/27 04:29:37;;;;;;;129.80;48.80;;;;;;;0.88;97.01;100632.58;106700;1269;22537;-59
2023/01/27 04:32:10;;;;;;;125.10;49.50;;;;;;;0.88;97.07;100633.05;106475;1274;24697;-61
2023/01/27 04:34:42;;;;;;;125.10;46.80;;;;;;;0.91;97.32;100634.13;106539;1269;24272;-58
2023/01/27 04:37:13;;;;;;;125.70;46.80;;;;;;;0.93;97.35;100634.19;106582;1271;22579;-58
2023/01/27 04:39:44;;;;;;;126.40;46.20;;;;;;;0.94;97.31;100633.79;106433;1276;22544;-57
2023/01/27 04:42:15;;;;;;;118.10;44.90;;;;;;;0.92;97.32;100632.09;106584;1270;22542;-61
2023/01/27 04:44:46;;;;;;;136.70;50.80;;;;;;;0.91;97.35;100633.83;106509;1262;22535;-59
2023/01/27 04:47:16;;;;;;;129.80;48.60;;;;;;;0.91;97.60;100631.30;106413;1270;26584;-59
2023/01/27 04:49:47;;;;;;;131.30;47.70;;;;;;;0.93;97.59;100631.53;106414;1253;23080;-59
2023/01/27 04:52:18;;;;;;;145.90;50.30;;;;;;;0.93;97.67;100629.08;106452;1269;25329;-59
2023/01/27 04:54:49;;;;;;;135.60;50.90;;;;;;;0.94;97.65;100634.27;106276;1269;22582;-58
2023/01/27 04:57:19;;;;;;;140.40;53.70;;;;;;;0.92;97.59;100632.78;106496;1275;22753;-60
2023/01/27 04:59:50;;;;;;;148.00;52.90;;;;;;;0.92;97.60;100636.00;106489;1276;24261;-59
2023/01/27 05:02:21;;;;;;;131.50;54.60;;;;;;;0.93;97.73;100637.57;106362;1269;24013;-58
2023/01/27 05:04:52;;;;;;;136.80;52.90;;;;;;;0.95;97.85;100633.79;106469;1275;22539;-59
2023/01/27 05:07:23;;;;;;;164.60;58.40;;;;;;;0.94;97.70;100638.52;106396;1262;25375;-60
2023/01/27 05:09:53;;;;;;;145.40;54.60;;;;;;;0.91;97.74;100640.89;106393;1276;24254;-60
2023/01/27 05:12:24;;;;;;;149.80;56.20;;;;;;;0.89;97.86;100641.52;106434;1276;25146;-58
2023/01/27 05:14:55;;;;;;;145.70;55.80;;;;;;;0.90;97.90;100649.05;106401;1276;22606;-61
2023/01/27 05:17:29;;;;;;;157.30;59.00;;;;;;;0.89;97.98;100647.96;106500;1270;24252;-60
2023/01/27 05:20:00;;;;;;;159.90;58.00;;;;;;;0.89;97.93;100653.06;106511;1270;24230;-59
2023/01/27 05:22:33;;;;;;;156.60;58.60;;;;;;;0.92;98.01;100658.30;106226;1257;25351;-58
2023/01/27 05:25:04;;;;;;;158.80;58.30;;;;;;;0.93;98.04;100660.19;106356;1263;22909;-60
2023/01/27 05:27:35;;;;;;;173.80;62.40;;;;;;;0.94;98.03;100667.48;106474;1275;22549;-61
2023/01/27 05:30:09;;;;;;;158.50;58.00;;;;;;;0.94;98.01;100664.50;106380;1276;26019;-59
2023/01/27 05:32:39;;;;;;;146.30;58.30;;;;;;;0.96;98.05;100668.97;106502;1261;22710;-60
2023/01/27 05:35:11;;;;;;;160.60;61.40;;;;;;;0.96;98.05;100669.58;106374;1276;22672;-60
2023/01/27 05:37:42;;;;;;;152.30;59.00;;;;;;;0.98;98.04;100669.50;106506;1275;24269;-60
2023/01/27 05:40:14;;;;;;;152.90;56.70;;;;;;;1.00;98.01;100669.64;106444;1276;22549;-61
2023/01/27 05:42:45;;;;;;;162.90;60.00;;;;;;;0.99;97.95;100672.01;106530;1276;22641;-60
2023/01/27 05:45:16;;;;;;;177.10;62.90;;;;;;;0.99;98.00;100675.05;106376;1269;22530;-61
2023/01/27 05:47:50;;;;;;;153.30;58.80;;;;;;;1.00;97.91;100675.76;106340;1265;24390;-62
2023/01/27 05:50:21;;;;;;;165.20;60.40;;;;;;;1.00;97.92;100678.98;106400;1276;22529;-61
2023/01/27 05:52:53;;;;;;;164.00;61.70;;;;;;;1.02;97.94;100681.56;106375;1269;25509;-62
2023/01/27 05:55:24;;;;;;;151.80;58.80;;;;;;;1.03;97.96;100677.70;106668;1272;22549;-61
2023/01/27 05:57:55;;;;;;;155.10;60.30;;;;;;;1.05;97.92;100679.65;106559;1271;22537;-61
2023/01/27 06:00:27;;;;;;;147.50;56.40;;;;;;;1.08;98.03;100680.17;106492;1269;25400;-62
2023/01/27 06:02:58;;;;;;;155.10;56.70;;;;;;;1.11;97.95;100686.69;107134;1276;25322;-61
2023/01/27 06:05:29;;;;;;;155.10;58.00;;;;;;;1.12;97.98;100685.17;106481;1272;22754;-61
2023/01/27 06:08:00;;;;;;;145.00;55.80;;;;;;;1.11;97.89;100684.17;106405;1276;22579;-62
2023/01/27 06:10:31;;;;;;;142.40;53.70;;;;;;;1.11;97.93;100681.89;106523;1274;22535;-62
2023/01/27 06:13:02;;;;;;;151.50;54.20;;;;;;;1.11;97.94;100686.22;106710;1265;22545;-61
2023/01/27 06:15:33;;;;;;;149.60;54.90;;;;;;;1.11;97.92;100691.86;106517;1274;22524;-61
2023/01/27 06:18:04;;;;;;;125.70;48.80;;;;;;;1.10;97.90;100696.41;106682;1276;22538;-62
2023/01/27 06:20:35;;;;;;;150.80;55.20;;;;;;;1.10;97.97;100701.84;106595;1276;24732;-61
2023/01/27 06:23:06;;;;;;;148.10;55.40;;;;;;;1.11;98.01;100699.33;106519;1276;24269;-60
2023/01/27 06:25:41;;;;;;;138.00;52.70;;;;;;;1.10;97.94;100696.83;106695;1276;25422;-61
2023/01/27 06:28:13;;;;;;;140.90;50.20;;;;;;;1.05;97.83;100696.94;106568;1274;25310;-61
2023/01/27 06:30:45;;;;;;;151.10;53.60;;;;;;;1.04;98.00;100698.60;106740;1269;24256;-63
2023/01/27 06:33:16;;;;;;;143.00;52.10;;;;;;;1.05;98.09;100701.50;106493;1275;25262;-62
2023/01/27 06:35:47;;;;;;;144.10;54.30;;;;;;;1.06;98.16;100704.00;106702;1276;22553;-62
2023/01/27 06:38:18;;;;;;;153.80;60.30;;;;;;;1.07;98.26;100705.48;106616;1276;22734;-62
2023/01/27 06:40:49;;;;;;;148.90;52.40;;;;;;;1.09;98.30;100710.95;106437;1271;22500;-61
2023/01/27 06:43:20;;;;;;;158.20;54.80;;;;;;;1.11;98.44;100715.13;106466;1276;22559;-62
2023/01/27 06:45:53;;;;;;;161.90;53.40;;;;;;;1.14;98.52;100715.73;106369;1276;22610;-62
2023/01/27 06:48:24;;;;;;;137.00;47.60;;;;;;;1.14;98.32;100720.36;106518;1276;24244;-62
2023/01/27 06:50:56;;;;;;;136.60;46.90;;;;;;;1.11;98.38;100718.42;106447;1275;22521;-62
2023/01/27 06:53:27;;;;;;;140.00;45.70;;;;;;;1.06;98.32;100719.71;106785;1271;25375;-64
2023/01/27 06:55:59;;;;;;;157.90;52.50;;;;;;;1.05;98.51;100714.85;106507;1276;25309;-62
2023/01/27 06:58:31;;;;;;;159.30;54.90;;;;;;;1.04;98.57;100711.31;106455;1276;22534;-62
2023/01/27 07:01:03;;;;;;;149.20;51.30;;;;;;;1.03;98.66;100713.36;106473;1270;24114;-62
2023/01/27 07:03:34;;;;;;;156.70;52.00;;;;;;;1.02;98.83;100714.48;106442;1269;26606;-61
2023/01/27 07:06:06;;;;;;;159.20;56.20;;;;;;;1.02;98.88;100707.24;106435;1276;22574;-62
2023/01/27 07:08:37;;;;;;;147.10;51.90;;;;;;;1.03;98.86;100707.87;106683;1269;25519;-62
2023/01/27 07:11:08;;;;;;;131.40;48.00;;;;;;;1.02;98.91;100706.69;106516;1276;22645;-62
2023/01/27 07:13:39;;;;;;;153.10;53.70;;;;;;;1.01;99.02;100710.47;106499;1274;27668;-62
2023/01/27 07:16:10;;;;;;;157.90;54.20;;;;;;;1.02;99.06;100708.50;106504;1272;25266;-62
2023/01/27 07:18:41;;;;;;;155.30;53.60;;;;;;;1.05;99.19;100711.15;106504;1274;22537;-61
2023/01/27 07:21:11;;;;;;;153.90;55.80;;;;;;;1.05;99.13;100712.41;106550;1263;25336;-61
2023/01/27 07:23:42;;;;;;;133.10;48.80;;;;;;;1.05;99.08;100709.27;106531;1270;24252;-62
2023/01/27 07:26:13;;;;;;;146.40;48.00;;;;;;;1.05;99.20;100718.86;106534;1275;24269;-62
2023/01/27 07:28:44;;;;;;;160.70;55.00;;;;;;;1.03;99.22;100715.97;106488;1274;22588;-61
2023/01/27 07:31:15;;;;;;;159.90;55.90;;;;;;;1.05;99.37;100718.14;106511;1271;22578;-64
2023/01/27 07:33:45;;;;;;;138.70;48.00;;;;;;;1.06;99.34;100722.22;106508;1276;22533;-61
2023/01/27 07:36:16;;;;;;;151.60;51.50;;;;;;;1.07;99.34;100724.41;106521;1269;22696;-61
2023/01/27 07:38:50;;;;;;;153.60;51.70;;;;;;;1.09;99.37;100728.95;106552;1276;24252;-62
2023/01/27 07:41:21;;;;;;;151.00;52.20;;;;;;;1.11;99.36;100732.16;106577;1263;25424;-61
2023/01/27 07:43:52;;;;;;;146.30;51.30;;;;;;;1.13;99.41;100738.98;106540;1260;24255;-62
2023/01/27 07:46:23;;;;;;;149.20;55.20;;;;;;;1.15;99.40;100739.91;106501;1262;22653;-64
2023/01/27 07:48:54;;;;;;;139.20;44.90;;;;;;;1.16;99.38;100738.66;106427;1273;22643;-61
2023/01/27 07:51:25;;;;;;;153.30;49.90;;;;;;;1.15;99.30;100739.61;106561;1271;22542;-61
2023/01/27 07:53:56;;;;;;;123.30;49.10;;;;;;;1.13;99.27;100738.60;106568;1276;22541;-62
2023/01/27 07:56:28;;;;;;;154.90;49.20;;;;;;;1.12;99.46;100737.66;106820;1255;22611;-62
2023/01/27 07:58:58;;;;;;;163.10;58.80;;;;;;;1.14;99.51;100741.66;106519;1273;25685;-62
2023/01/27 08:01:30;;;;;;;241.90;104.60;;;;;;;1.16;99.61;100741.80;106542;1270;22526;-61
2023/01/27 08:04:01;;;;;;;236.50;97.20;;;;;;;1.17;99.51;100740.61;106600;1276;22526;-61
2023/01/27 08:06:32;;;;;;;264.90;115.00;;;;;;;1.18;99.30;100741.40;106600;1276;22527;-60
2023/01/27 08:09:04;;;;;;;219.80;95.10;;;;;;;1.20;99.33;100742.32;106533;1276;22593;-62
2023/01/27 08:11:35;;;;;;;225.60;97.60;;;;;;;1.19;99.13;100735.26;106521;1270;24234;-60
2023/01/27 08:14:06;;;;;;;227.60;105.20;;;;;;;1.20;99.27;100743.51;106584;1276;22540;-61
2023/01/27 08:16:36;;;;;;;222.60;101.20;;;;;;;1.20;99.25;100742.94;106549;1275;22625;-61
2023/01/27 08:19:07;;;;;;;235.30;107.00;;;;;;;1.21;99.15;100742.16;106512;1276;22623;-61
2023/01/27 08:21:38;;;;;;;238.80;102.40;;;;;;;1.21;99.14;100741.77;106627;1264;24310;-62
2023/01/27 08:24:11;;;;;;;261.60;109.50;;;;;;;1.21;99.20;100742.94;106512;1275;25479;-61
2023/01/27 08:26:42;;;;;;;255.50;110.40;;;;;;;1.22;99.25;100748.42;106550;1276;22536;-63
2023/01/27 08:29:14;;;;;;;224.40;101.60;;;;;;;1.24;99.22;100749.05;106510;1266;22581;-63
2023/01/27 08:31:45;;;;;;;240.60;103.60;;;;;;;1.25;99.12;100751.09;106581;1270;24336;-63
2023/01/27 08:34:16;;;;;;;219.80;95.70;;;;;;;1.27;99.06;100753.76;106605;1271;25502;-61
2023/01/27 08:36:47;;;;;;;201.30;87.20;;;;;;;1.26;99.05;100755.23;106508;1276;22542;-62
2023/01/27 08:39:17;;;;;;;191.80;79.50;;;;;;;1.27;99.14;100756.95;106514;1270;22594;-61
2023/01/27 08:41:48;;;;;;;185.00;76.20;;;;;;;1.26;99.02;100758.85;106608;1276;22709;-61
2023/01/27 08:44:20;;;;;;;181.80;73.90;;;;;;;1.25;98.98;100760.90;106578;1272;24255;-60
2023/01/27 08:46:51;;;;;;;175.90;73.10;;;;;;;1.24;99.00;100763.19;106513;1275;24270;-61
2023/01/27 08:49:22;;;;;;;175.30;70.50;;;;;;;1.24;99.05;100762.95;106484;1275;24273;-61
2023/01/27 08:51:53;;;;;;;168.20;67.00;;;;;;;1.24;99.18;100763.89;106365;1276;25592;-61
2023/01/27 08:54:23;;;;;;;175.40;73.90;;;;;;;1.26;99.16;100775.05;106533;1275;22542;-61
2023/01/27 08:56:54;;;;;;;169.80;71.00;;;;;;;1.25;99.09;100772.39;106781;1276;22572;-61
2023/01/27 08:59:26;;;;;;;151.90;66.70;;;;;;;1.24;99.19;100769.55;106555;1273;22534;-61
2023/01/27 09:01:56;;;;;;;168.40;68.60;;;;;;;1.23;98.94;100766.50;106524;1276;24311;-61
2023/01/27 09:04:28;;;;;;;175.60;67.60;;;;;;;1.22;99.03;100769.10;106576;1276;22539;-61
2023/01/27 09:07:00;;;;;;;167.50;65.40;;;;;;;1.22;99.04;100769.11;106613;1276;24346;-61
2023/01/27 09:09:30;;;;;;;147.60;61.80;;;;;;;1.22;99.21;100769.97;106541;1276;24404;-62
2023/01/27 09:12:01;;;;;;;133.10;56.50;;;;;;;1.23;99.21;100774.04;106563;1276;22541;-62
2023/01/27 09:14:32;;;;;;;130.70;53.40;;;;;;;1.23;99.21;100774.27;106620;1270;22534;-61
2023/01/27 09:17:03;;;;;;;118.90;50.10;;;;;;;1.24;99.24;100779.22;106513;1254;22654;-62
2023/01/27 09:19:34;;;;;;;128.60;49.30;;;;;;;1.25;99.26;100778.28;106485;1262;25407;-61
2023/01/27 09:22:05;;;;;;;144.50;57.10;;;;;;;1.27;99.28;100778.41;106472;1276;22542;-61
2023/01/27 09:24:36;;;;;;;162.30;65.70;;;;;;;1.27;99.35;100781.33;106548;1272;24276;-60
2023/01/27 09:27:08;;;;;;;159.80;69.20;;;;;;;1.28;99.34;100784.85;106627;1276;22552;-60
2023/01/27 09:29:39;;;;;;;145.40;63.60;;;;;;;1.26;99.03;100790.22;106544;1276;24282;-62
2023/01/27 09:32:11;;;;;;;100.30;40.50;;;;;;;1.24;99.00;100792.34;106647;1273;25408;-62
2023/01/27 09:34:42;;;;;;;111.00;47.30;;;;;;;1.24;99.13;100800.52;106616;1263;22556;-62
2023/01/27 09:37:14;;;;;;;126.70;56.90;;;;;;;1.26;99.15;100801.45;106554;1276;22549;-62
2023/01/27 09:39:51;;;;;;;113.10;50.30;;;;;;;1.25;99.06;100804.84;106530;1276;24265;-63
2023/01/27 09:42:49;;;;;;;192.10;88.30;;;;;;;1.25;98.94;100803.17;106596;1276;22660;-62
2023/01/27 09:45:39;;;;;;;214.50;93.50;;;;;;;1.26;99.13;100806.16;106555;1271;25590;-60
2023/01/27 09:48:28;;;;;;;355.00;159.60;;;;;;;1.25;99.12;100811.83;106569;1270;27118;-61
2023/01/27 09:51:04;;;;;;;327.90;139.90;;;;;;;1.27;99.17;100808.75;106450;1276;24940;-62
2023/01/27 09:53:56;;;;;;;237.00;108.30;;;;;;;1.28;99.09;100810.70;106580;1276;22551;-61
2023/01/27 09:56:38;;;;;;;147.70;66.00;;;;;;;1.26;98.93;100809.46;106542;1274;24256;-62
2023/01/27 09:59:23;;;;;;;145.50;67.60;;;;;;;1.24;98.95;100807.11;106721;1269;23016;-63
2023/01/27 10:02:04;;;;;;;149.00;69.30;;;;;;;1.26;98.99;100807.98;106728;1267;22552;-62
2023/01/27 10:04:51;;;;;;;141.10;67.90;;;;;;;1.26;99.00;100804.91;106863;1270;25253;-63
2023/01/27 10:07:43;;;;;;;138.50;61.10;;;;;;;1.26;98.93;100805.52;106665;1272;24192;-62
2023/01/27 10:10:26;;;;;;;131.70;56.70;;;;;;;1.25;98.87;100801.14;106516;1276;26569;-62
2023/01/27 10:13:22;;;;;;;122.20;48.80;;;;;;;1.26;99.09;100798.39;106530;1270;25284;-63
2023/01/27 10:16:07;;;;;;;116.00;46.40;;;;;;;1.27;99.07;100800.27;106527;1276;25575;-63
2023/01/27 10:18:53;;;;;;;118.90;47.30;;;;;;;1.25;98.78;100804.83;106678;1276;25421;-62
2023/01/27 10:21:34;;;;;;;131.30;48.00;;;;;;;1.26;99.09;100800.49;106561;1276;25370;-64
2023/01/27 10:24:17;;;;;;;124.80;47.40;;;;;;;1.28;99.09;100804.58;106597;1276;22540;-63
2023/01/27 10:26:52;;;;;;;115.70;47.50;;;;;;;1.28;98.96;100807.17;106647;1276;22527;-63
2023/01/27 10:29:26;;;;;;;126.20;47.10;;;;;;;1.27;99.00;100805.92;106663;1269;22538;-62
2023/01/27 10:32:01;;;;;;;126.80;50.80;;;;;;;1.28;98.89;100809.60;106715;1274;24231;-65
2023/01/27 10:34:37;;;;;;;134.70;50.30;;;;;;;1.26;98.75;100808.37;106639;1264;23093;-63
2023/01/27 10:37:24;;;;;;;132.60;49.00;;;;;;;1.24;98.87;100802.95;106963;1276;24339;-63
2023/01/27 10:40:03;;;;;;;121.00;45.50;;;;;;;1.24;98.73;100804.77;106533;1270;22622;-63
2023/01/27 10:42:40;;;;;;;137.90;52.20;;;;;;;1.23;98.78;100804.38;106579;1270;25431;-64
2023/01/27 10:45:23;;;;;;;110.10;42.60;;;;;;;1.21;98.76;100804.85;106773;1270;22545;-63
2023/01/27 10:48:08;;;;;;;136.60;56.10;;;;;;;1.21;98.79;100808.23;106583;1276;22520;-62
2023/01/27 10:50:45;;;;;;;160.70;60.80;;;;;;;1.20;98.88;100814.53;106639;1276;24403;-63
2023/01/27 10:53:22;;;;;;;163.60;64.90;;;;;;;1.23;99.13;100815.14;106587;1273;24268;-65
2023/01/27 10:56:01;;;;;;;155.80;63.30;;;;;;;1.26;99.07;100811.42;106547;1276;25470;-63
2023/01/27 10:58:44;;;;;;;145.80;55.30;;;;;;;1.26;98.78;100812.14;106728;1275;22539;-64
2023/01/27 11:01:20;;;;;;;161.90;58.90;;;;;;;1.24;98.71;100808.60;106575;1276;22526;-63
2023/01/27 11:03:56;;;;;;;147.80;62.70;;;;;;;1.25;98.78;100806.25;106510;1273;23932;-63
2023/01/27 11:06:32;;;;;;;146.40;56.80;;;;;;;1.25;98.63;100809.47;106627;1267;25347;-64
2023/01/27 11:09:11;;;;;;;131.30;55.10;;;;;;;1.26;98.66;100807.90;106790;1276;22537;-63
2023/01/27 11:11:44;;;;;;;124.00;48.50;;;;;;;1.27;98.67;100807.80;106567;1271;25368;-64
2023/01/27 11:14:22;;;;;;;135.80;55.10;;;;;;;1.25;98.52;100809.79;106686;1262;25364;-64
2023/01/27 11:17:00;;;;;;;135.50;53.00;;;;;;;1.27;98.84;100805.60;106642;1270;25220;-63
2023/01/27 11:19:43;;;;;;;114.70;46.70;;;;;;;1.28;98.66;100810.16;106780;1270;22657;-66
2023/01/27 11:22:21;;;;;;;142.10;53.00;;;;;;;1.29;98.70;100807.16;106654;1274;22550;-62
2023/01/27 11:25:00;;;;;;;148.50;56.80;;;;;;;1.28;98.44;100810.15;106542;1269;25255;-61
2023/01/27 11:27:52;;;;;;;144.90;62.00;;;;;;;1.27;98.60;100804.11;106505;1276;22858;-63
2023/01/27 11:30:32;;;;;;;140.50;53.60;;;;;;;1.28;98.59;100800.11;106478;1276;22659;-61
2023/01/27 11:33:10;;;;;;;132.30;53.80;;;;;;;1.28;98.49;100796.33;106549;1276;22544;-62
2023/01/27 11:35:41;;;;;;;132.10;49.20;;;;;;;1.26;98.40;100795.41;106485;1276;22537;-62
2023/01/27 11:38:18;;;;;;;120.40;48.80;;;;;;;1.23;98.67;100796.83;106557;1276;25386;-62
2023/01/27 11:40:51;;;;;;;119.30;46.00;;;;;;;1.23;98.72;100794.55;106740;1273;25366;-63
2023/01/27 11:43:26;;;;;;;126.80;51.70;;;;;;;1.21;98.66;100798.18;106541;1276;22588;-63
2023/01/27 11:46:02;;;;;;;130.70;50.60;;;;;;;1.20;98.65;100796.45;106652;1264;22613;-62
2023/01/27 11:48:40;;;;;;;117.20;45.90;;;;;;;1.19;98.75;100803.15;106567;1276;25256;-64
2023/01/27 11:51:19;;;;;;;120.40;48.80;;;;;;;1.17;98.61;100804.27;106653;1276;23025;-62
2023/01/27 11:54:04;;;;;;;117.80;47.60;;;;;;;1.16;98.88;100798.84;106606;1276;25313;-61
2023/01/27 11:56:37;;;;;;;116.00;48.70;;;;;;;1.17;98.70;100800.48;106505;1276;25591;-61
2023/01/27 11:59:16;;;;;;;132.20;53.30;;;;;;;1.15;98.54;100796.88;106671;1274;22812;-62
2023/01/27 12:01:51;;;;;;;131.30;51.30;;;;;;;1.15;98.55;100794.77;106510;1270;22668;-62
2023/01/27 12:04:31;;;;;;;114.50;46.40;;;;;;;1.17;98.73;100795.23;106612;1274;22534;-63